createdAt,value
2018-08-16T00:01:07.632Z,63.00
2018-08-16T00:03:35.165Z,63.00
2018-08-16T00:06:02.680Z,63.00
2018-08-16T00:08:30.977Z,63.10
2018-08-16T00:13:26.160Z,63.60
2018-08-16T00:15:53.788Z,63.80
2018-08-16T00:18:21.313Z,64.50
2018-08-16T00:20:48.792Z,64.50
2018-08-16T00:25:44.227Z,64.00
2018-08-16T00:28:12.082Z,64.40
2018-08-16T00:30:39.607Z,64.90
2018-08-16T00:33:07.337Z,65.30
2018-08-16T00:35:35.545Z,65.30
2018-08-16T00:38:03.237Z,65.40
2018-08-16T00:42:58.880Z,65.50
2018-08-16T00:45:26.665Z,65.30
2018-08-16T00:47:54.304Z,65.30
2018-08-16T00:50:21.859Z,65.30
2018-08-16T00:52:49.290Z,65.90
2018-08-16T00:55:16.892Z,65.80
2018-08-16T00:57:44.444Z,65.80
2018-08-16T01:00:15.163Z,66.20
2018-08-16T01:05:10.464Z,66.20
2018-08-16T01:07:38.196Z,66.40
2018-08-16T01:10:07.411Z,66.30
2018-08-16T01:12:34.861Z,66.40
2018-08-16T01:15:02.564Z,66.80
2018-08-16T01:17:30.092Z,66.80
2018-08-16T01:19:57.755Z,67.30
2018-08-16T01:22:26.465Z,67.50
2018-08-16T01:27:21.524Z,67.70
2018-08-16T01:29:50.783Z,67.30
2018-08-16T01:32:18.347Z,67.60
2018-08-16T01:34:45.900Z,68.40
2018-08-16T01:37:13.383Z,68.40
2018-08-16T01:39:42.202Z,68.60
2018-08-16T01:42:09.703Z,68.50
2018-08-16T01:44:37.143Z,68.80
2018-08-16T01:47:04.746Z,68.80
2018-08-16T01:49:37.000Z,69.00
2018-08-16T01:52:04.652Z,69.00
2018-08-16T01:54:33.300Z,68.70
2018-08-16T01:57:01.644Z,68.80
2018-08-16T01:59:29.240Z,68.80
2018-08-16T02:01:57.506Z,67.80
2018-08-16T02:04:25.146Z,68.30
2018-08-16T02:06:53.813Z,67.50
2018-08-16T02:09:22.046Z,67.50
2018-08-16T02:11:49.879Z,68.10
2018-08-16T02:14:18.032Z,68.50
2018-08-16T02:16:45.520Z,68.50
2018-08-16T02:19:14.476Z,68.20
2018-08-16T02:21:42.582Z,68.20
2018-08-16T02:24:10.179Z,68.10
2018-08-16T02:26:37.767Z,68.60
2018-08-16T02:29:05.537Z,68.80
2018-08-16T02:31:33.720Z,69.10
2018-08-16T02:34:01.315Z,69.10
2018-08-16T02:36:28.872Z,69.20
2018-08-16T02:38:56.930Z,67.10
2018-08-16T02:41:25.468Z,70.10
2018-08-16T02:43:55.612Z,69.80
2018-08-16T02:46:23.279Z,70.30
2018-08-16T02:48:50.771Z,71.60
2018-08-16T02:51:18.393Z,71.50
2018-08-16T02:53:45.941Z,71.80
2018-08-16T02:56:13.431Z,71.60
2018-08-16T02:58:40.930Z,72.10
2018-08-16T03:01:08.591Z,72.30
2018-08-16T03:03:36.050Z,71.90
2018-08-16T03:06:03.732Z,72.00
2018-08-16T03:08:31.263Z,72.60
2018-08-16T03:10:58.707Z,72.20
2018-08-16T03:15:54.360Z,71.80
2018-08-16T03:18:21.943Z,71.80
2018-08-16T03:20:49.432Z,71.20
2018-08-16T03:23:17.336Z,71.70
2018-08-16T03:25:44.792Z,71.50
2018-08-16T03:28:12.280Z,72.30
2018-08-16T03:30:39.748Z,72.60
2018-08-16T03:33:07.348Z,73.90
2018-08-16T03:35:35.140Z,72.30
2018-08-16T03:38:02.636Z,72.10
2018-08-16T03:40:30.204Z,71.80
2018-08-16T03:42:57.775Z,72.30
2018-08-16T03:45:27.492Z,73.00
2018-08-16T03:47:54.964Z,72.50
2018-08-16T03:50:22.415Z,72.50
2018-08-16T03:52:50.006Z,72.50
2018-08-16T03:55:17.615Z,72.30
2018-08-16T03:57:45.255Z,72.10
2018-08-16T04:00:12.710Z,72.90
2018-08-16T04:02:40.184Z,72.50
2018-08-16T04:05:08.044Z,71.50
2018-08-16T04:07:35.583Z,71.30
2018-08-16T04:10:03.512Z,70.90
2018-08-16T04:12:31.011Z,71.60
2018-08-16T04:14:58.454Z,71.70
2018-08-16T04:17:32.845Z,71.60
2018-08-16T04:20:00.370Z,71.40
2018-08-16T04:22:27.848Z,72.10
2018-08-16T04:24:55.488Z,71.30
2018-08-16T04:27:22.951Z,71.70
2018-08-16T04:29:50.430Z,71.20
2018-08-16T04:32:17.942Z,70.90
2018-08-16T04:34:45.659Z,70.30
2018-08-16T04:37:13.744Z,70.70
2018-08-16T04:39:41.384Z,72.00
2018-08-16T04:42:09.013Z,71.00
2018-08-16T04:44:36.560Z,71.00
2018-08-16T04:47:04.136Z,71.00
2018-08-16T04:49:31.644Z,71.10
2018-08-16T04:52:00.159Z,72.10
2018-08-16T04:54:27.661Z,72.60
2018-08-16T04:56:55.961Z,72.90
2018-08-16T04:59:23.407Z,72.50
2018-08-16T05:01:50.964Z,72.50
2018-08-16T05:04:18.449Z,73.00
2018-08-16T05:06:45.912Z,73.40
2018-08-16T05:09:13.400Z,72.80
2018-08-16T05:11:41.193Z,72.80
2018-08-16T05:14:09.357Z,72.80
2018-08-16T05:16:37.137Z,72.50
2018-08-16T05:19:05.063Z,71.50
2018-08-16T05:21:32.615Z,72.10
2018-08-16T05:24:00.247Z,71.80
2018-08-16T05:26:27.660Z,72.00
2018-08-16T05:28:55.336Z,72.10
2018-08-16T05:31:22.814Z,72.80
2018-08-16T05:33:50.346Z,71.10
2018-08-16T05:36:17.868Z,70.90
2018-08-16T05:38:45.378Z,70.80
2018-08-16T05:41:12.894Z,70.50
2018-08-16T05:43:40.434Z,70.10
2018-08-16T05:46:08.005Z,69.40
2018-08-16T05:48:35.498Z,69.30
2018-08-16T05:51:02.964Z,70.50
2018-08-16T05:53:30.508Z,71.10
2018-08-16T05:58:25.479Z,71.80
2018-08-16T06:00:52.953Z,71.80
2018-08-16T06:03:20.486Z,70.70
2018-08-16T06:05:48.011Z,70.60
2018-08-16T06:08:15.515Z,69.80
2018-08-16T06:10:43.093Z,69.60
2018-08-16T06:13:10.584Z,69.30
2018-08-16T06:15:38.181Z,67.60
2018-08-16T06:18:05.743Z,67.50
2018-08-16T06:20:33.229Z,67.30
2018-08-16T06:23:00.742Z,67.30
2018-08-16T06:27:56.180Z,66.80
2018-08-16T06:30:23.794Z,66.60
2018-08-16T06:32:51.408Z,65.40
2018-08-16T06:35:18.994Z,64.50
2018-08-16T06:37:46.559Z,64.50
2018-08-16T06:40:15.875Z,64.60
2018-08-16T06:42:43.896Z,64.40
2018-08-16T06:45:11.475Z,63.30
2018-08-16T06:47:38.987Z,63.40
2018-08-16T06:50:07.141Z,63.00
2018-08-16T06:52:34.719Z,63.50
2018-08-16T06:55:03.233Z,63.40
2018-08-16T06:57:30.792Z,62.40
2018-08-16T06:59:58.368Z,61.70
2018-08-16T07:02:26.011Z,61.70
2018-08-16T07:04:53.654Z,61.00
2018-08-16T07:07:21.121Z,61.30
2018-08-16T07:09:48.667Z,60.70
2018-08-16T07:12:16.221Z,59.70
2018-08-16T07:14:43.593Z,60.60
2018-08-16T07:17:11.120Z,60.60
2018-08-16T07:22:06.195Z,59.30
2018-08-16T07:24:33.788Z,58.30
2018-08-16T07:27:01.260Z,58.50
2018-08-16T07:29:28.877Z,58.70
2018-08-16T07:31:56.307Z,58.50
2018-08-16T07:34:23.815Z,56.90
2018-08-16T07:36:51.532Z,57.00
2018-08-16T07:39:19.097Z,57.20
2018-08-16T07:41:46.652Z,57.00
2018-08-16T07:44:14.169Z,56.10
2018-08-16T07:46:41.666Z,55.60
2018-08-16T07:49:09.225Z,55.80
2018-08-16T07:51:36.909Z,54.20
2018-08-16T07:54:04.304Z,54.90
2018-08-16T07:56:31.788Z,53.80
2018-08-16T07:58:59.311Z,53.50
2018-08-16T08:01:26.823Z,53.70
2018-08-16T08:03:54.341Z,53.50
2018-08-16T08:06:21.895Z,53.30
2018-08-16T08:08:49.473Z,52.70
2018-08-16T08:11:17.027Z,50.70
2018-08-16T08:13:44.584Z,49.70
2018-08-16T08:16:12.190Z,49.80
2018-08-16T08:18:39.650Z,50.40
2018-08-16T08:21:07.254Z,50.00
2018-08-16T08:26:02.231Z,50.60
2018-08-16T08:28:29.696Z,50.60
2018-08-16T08:30:57.332Z,49.10
2018-08-16T08:33:24.844Z,48.60
2018-08-16T08:36:03.985Z,49.00
2018-08-16T08:38:31.524Z,49.10
2018-08-16T08:40:59.048Z,49.60
2018-08-16T08:43:37.969Z,49.20
2018-08-16T08:46:05.625Z,48.00
2018-08-16T08:48:33.096Z,47.00
2018-08-16T08:51:00.584Z,47.60
2018-08-16T08:54:44.696Z,48.40
2018-08-16T08:57:23.574Z,47.00
2018-08-16T08:59:51.069Z,47.00
2018-08-16T09:02:18.731Z,47.20
2018-08-16T09:04:46.321Z,46.60
2018-08-16T09:07:18.893Z,46.20
2018-08-16T09:10:56.711Z,45.20
2018-08-16T09:13:36.541Z,45.00
2018-08-16T09:16:09.489Z,44.40
2018-08-16T09:18:37.679Z,45.00
2018-08-16T09:23:32.826Z,43.50
2018-08-16T09:26:00.342Z,43.50
2018-08-16T09:31:06.691Z,45.80
2018-08-16T09:33:45.651Z,42.90
2018-08-16T09:36:13.121Z,43.00
2018-08-16T09:38:40.585Z,41.40
2018-08-16T09:41:08.062Z,42.50
2018-08-16T09:43:35.585Z,41.60
2018-08-16T09:46:44.587Z,41.50
2018-08-16T09:51:40.045Z,40.80
2018-08-16T09:54:07.849Z,40.60
2018-08-16T10:01:30.296Z,40.80
2018-08-16T10:03:57.728Z,41.10
2018-08-16T10:06:26.115Z,40.80
2018-08-16T10:08:53.675Z,41.00
2018-08-16T10:11:21.296Z,41.50
2018-08-16T10:13:48.808Z,40.90
2018-08-16T10:16:16.341Z,40.40
2018-08-16T10:18:43.816Z,40.50
2018-08-16T10:21:11.312Z,40.50
2018-08-16T10:23:38.731Z,39.50
2018-08-16T10:26:06.352Z,39.80
2018-08-16T10:28:33.844Z,39.50
2018-08-16T10:31:01.329Z,39.70
2018-08-16T10:33:28.880Z,39.80
2018-08-16T10:35:56.540Z,40.40
2018-08-16T10:38:24.165Z,40.80
2018-08-16T10:40:51.691Z,39.80
2018-08-16T10:43:19.253Z,39.90
2018-08-16T10:45:46.743Z,39.30
2018-08-16T10:48:14.244Z,39.50
2018-08-16T10:50:41.777Z,39.90
2018-08-16T10:53:09.256Z,40.10
2018-08-16T10:55:36.897Z,39.10
2018-08-16T10:58:04.388Z,38.90
2018-08-16T11:01:56.417Z,38.50
2018-08-16T11:04:23.885Z,39.00
2018-08-16T11:06:51.401Z,39.00
2018-08-16T11:09:18.901Z,38.80
2018-08-16T11:11:46.451Z,38.50
2018-08-16T11:14:14.004Z,39.00
2018-08-16T11:16:41.509Z,36.30
2018-08-16T11:19:09.069Z,36.90
2018-08-16T11:21:36.588Z,36.30
2018-08-16T11:24:04.134Z,36.90
2018-08-16T11:26:31.657Z,36.90
2018-08-16T11:28:59.140Z,37.90
2018-08-16T11:31:26.663Z,37.90
2018-08-16T11:33:54.209Z,38.70
2018-08-16T11:36:21.679Z,38.60
2018-08-16T11:38:49.244Z,37.90
2018-08-16T11:41:16.756Z,39.00
2018-08-16T11:43:44.308Z,38.50
2018-08-16T11:46:11.820Z,37.50
2018-08-16T11:48:39.322Z,37.60
2018-08-16T11:51:06.823Z,37.40
2018-08-16T11:53:34.339Z,37.20
2018-08-16T11:56:01.830Z,36.60
2018-08-16T11:58:29.403Z,37.10
2018-08-16T12:00:56.830Z,37.40
2018-08-16T12:03:24.376Z,36.00
2018-08-16T12:05:51.880Z,36.10
2018-08-16T12:08:19.430Z,34.80
2018-08-16T12:10:46.965Z,35.80
2018-08-16T12:13:14.411Z,35.20
2018-08-16T12:18:09.416Z,34.90
2018-08-16T12:20:36.889Z,38.80
2018-08-16T12:27:59.250Z,37.10
2018-08-16T12:30:26.740Z,36.30
2018-08-16T12:39:13.613Z,36.10
2018-08-16T12:41:41.152Z,34.70
2018-08-16T12:44:08.675Z,35.50
2018-08-16T12:46:36.253Z,34.50
2018-08-16T12:49:03.995Z,35.10
2018-08-16T12:51:31.520Z,36.20
2018-08-16T12:53:59.121Z,36.80
2018-08-16T12:56:26.658Z,36.30
2018-08-16T12:58:54.261Z,33.60
2018-08-16T13:01:21.869Z,33.20
2018-08-16T13:03:49.326Z,33.70
2018-08-16T13:06:16.813Z,33.70
2018-08-16T13:08:44.822Z,34.60
2018-08-16T13:11:12.311Z,34.30
2018-08-16T13:18:35.220Z,33.60
2018-08-16T13:23:30.081Z,33.30
2018-08-16T13:25:57.591Z,33.60
2018-08-16T13:28:25.083Z,34.30
2018-08-16T13:30:52.707Z,35.70
2018-08-16T13:33:20.232Z,35.80
2018-08-16T13:35:47.747Z,36.60
2018-08-16T13:38:15.272Z,36.10
2018-08-16T13:40:42.833Z,35.10
2018-08-16T13:43:10.404Z,35.90
2018-08-16T13:45:37.924Z,36.10
2018-08-16T13:48:05.562Z,36.70
2018-08-16T13:50:33.049Z,34.70
2018-08-16T13:53:00.626Z,34.80
2018-08-16T13:55:28.106Z,36.10
2018-08-16T13:57:55.604Z,34.20
2018-08-16T14:00:23.150Z,35.70
2018-08-16T14:02:50.573Z,35.00
2018-08-16T14:05:18.055Z,34.60
2018-08-16T14:07:45.535Z,34.90
2018-08-16T14:10:13.118Z,33.60
2018-08-16T14:12:40.616Z,34.00
2018-08-16T14:15:08.144Z,36.00
2018-08-16T14:17:35.773Z,33.70
2018-08-16T14:20:04.094Z,34.80
2018-08-16T14:22:31.601Z,36.00
2018-08-16T14:24:59.149Z,36.10
2018-08-16T14:27:26.652Z,35.70
2018-08-16T14:29:54.308Z,34.60
2018-08-16T14:32:21.909Z,35.10
2018-08-16T14:34:49.372Z,35.60
2018-08-16T14:37:16.835Z,36.20
2018-08-16T14:39:44.304Z,37.00
2018-08-16T14:42:11.910Z,37.00
2018-08-16T14:44:39.453Z,37.10
2018-08-16T14:47:07.172Z,37.10
2018-08-16T14:49:34.753Z,37.50
2018-08-16T14:52:02.463Z,37.30
2018-08-16T14:54:29.995Z,36.10
2018-08-16T14:56:58.534Z,34.90
2018-08-16T14:59:26.047Z,35.50
2018-08-16T15:01:53.518Z,35.50
2018-08-16T15:04:21.041Z,36.40
2018-08-16T15:06:48.600Z,34.00
2018-08-16T15:09:16.159Z,34.80
2018-08-16T15:11:43.701Z,35.10
2018-08-16T15:14:11.328Z,34.80
2018-08-16T15:16:38.951Z,34.80
2018-08-16T15:19:06.534Z,33.70
2018-08-16T15:21:34.322Z,34.80
2018-08-16T15:24:01.859Z,36.10
2018-08-16T15:26:29.352Z,33.70
2018-08-16T15:28:56.900Z,34.50
2018-08-16T15:31:24.377Z,34.90
2018-08-16T15:33:51.879Z,34.50
2018-08-16T15:36:19.469Z,35.80
2018-08-16T15:38:46.909Z,33.40
2018-08-16T15:41:14.469Z,33.60
2018-08-16T15:43:41.928Z,33.10
2018-08-16T15:46:09.539Z,33.10
2018-08-16T15:48:37.044Z,34.70
2018-08-16T15:51:04.837Z,34.60
2018-08-16T15:53:32.317Z,34.60
2018-08-16T15:55:59.869Z,34.10
2018-08-16T15:58:27.351Z,36.10
2018-08-16T16:00:54.850Z,36.00
2018-08-16T16:03:22.432Z,36.20
2018-08-16T16:05:50.196Z,35.60
2018-08-16T16:08:17.548Z,34.50
2018-08-16T16:10:45.089Z,36.50
2018-08-16T16:13:12.592Z,36.80
2018-08-16T16:16:43.285Z,37.50
2018-08-16T16:21:38.363Z,35.30
2018-08-16T16:26:33.443Z,36.60
2018-08-16T16:29:01.154Z,35.70
2018-08-16T16:31:28.725Z,36.20
2018-08-16T16:33:56.555Z,36.80
2018-08-16T16:36:24.177Z,36.00
2018-08-16T16:38:51.721Z,36.20
2018-08-16T16:41:19.318Z,37.20
2018-08-16T16:43:46.873Z,38.10
2018-08-16T16:46:15.118Z,35.10
2018-08-16T16:48:43.624Z,35.90
2018-08-16T16:51:11.220Z,36.70
2018-08-16T16:53:42.587Z,36.40
2018-08-16T16:56:10.119Z,38.00
2018-08-16T16:58:37.647Z,38.30
2018-08-16T17:01:05.575Z,38.60
2018-08-16T17:03:33.221Z,38.30
2018-08-16T17:06:00.948Z,38.20
2018-08-16T17:08:28.472Z,38.80
2018-08-16T17:10:56.601Z,38.80
2018-08-16T17:13:24.116Z,39.10
2018-08-16T17:15:51.655Z,39.20
2018-08-16T17:18:19.271Z,40.00
2018-08-16T17:20:46.820Z,40.00
2018-08-16T17:23:14.497Z,40.20
2018-08-16T17:25:42.182Z,39.50
2018-08-16T17:30:37.048Z,38.10
2018-08-16T17:33:04.943Z,38.20
2018-08-16T17:35:32.510Z,37.60
2018-08-16T17:38:00.047Z,38.40
2018-08-16T17:40:27.768Z,38.80
2018-08-16T17:42:55.296Z,40.00
2018-08-16T17:45:22.884Z,40.20
2018-08-16T17:47:50.547Z,39.00
2018-08-16T17:50:18.111Z,39.20
2018-08-16T17:52:45.567Z,39.50
2018-08-16T17:55:13.124Z,39.90
2018-08-16T17:57:40.741Z,39.90
2018-08-16T18:00:09.929Z,40.10
2018-08-16T18:02:37.449Z,40.80
2018-08-16T18:05:05.071Z,40.50
2018-08-16T18:07:32.555Z,42.20
2018-08-16T18:10:00.077Z,42.10
2018-08-16T18:12:27.717Z,42.10
2018-08-16T18:14:55.353Z,42.10
2018-08-16T18:17:23.361Z,42.00
2018-08-16T18:19:51.145Z,42.90
2018-08-16T18:22:19.292Z,42.90
2018-08-16T18:24:46.832Z,43.70
2018-08-16T18:27:15.285Z,43.60
2018-08-16T18:29:43.742Z,44.80
2018-08-16T18:32:11.336Z,45.50
2018-08-16T18:34:38.922Z,46.30
2018-08-16T18:37:06.535Z,46.30
2018-08-16T18:39:34.690Z,46.80
2018-08-16T18:42:02.319Z,46.20
2018-08-16T18:44:29.885Z,46.60
2018-08-16T18:46:58.024Z,47.10
2018-08-16T18:49:26.254Z,46.70
2018-08-16T18:51:53.944Z,47.30
2018-08-16T18:54:21.588Z,46.70
2018-08-16T18:56:49.049Z,46.40
2018-08-16T18:59:16.521Z,46.70
2018-08-16T19:01:51.277Z,46.30
2018-08-16T19:04:18.790Z,46.20
2018-08-16T19:06:46.370Z,46.80
2018-08-16T19:09:14.033Z,46.50
2018-08-16T19:11:41.721Z,46.50
2018-08-16T19:14:09.209Z,47.10
2018-08-16T19:16:36.708Z,47.70
2018-08-16T19:19:05.151Z,47.70
2018-08-16T19:24:00.805Z,47.10
2018-08-16T19:26:28.358Z,47.30
2018-08-16T19:28:56.017Z,47.40
2018-08-16T19:31:26.746Z,47.20
2018-08-16T19:33:54.311Z,47.50
2018-08-16T19:36:21.905Z,47.40
2018-08-16T19:38:49.512Z,47.40
2018-08-16T19:41:17.169Z,47.40
2018-08-16T19:43:44.651Z,47.50
2018-08-16T19:46:12.661Z,47.30
2018-08-16T19:48:40.689Z,47.10
2018-08-16T19:56:04.151Z,47.50
2018-08-16T19:58:32.543Z,47.30
2018-08-16T20:03:28.129Z,47.40
2018-08-16T20:05:56.561Z,48.70
2018-08-16T20:08:24.184Z,47.80
2018-08-16T20:10:52.741Z,62.40
2018-08-16T20:13:20.302Z,55.60
2018-08-16T20:15:47.960Z,55.80
2018-08-16T20:20:43.021Z,65.60
2018-08-16T20:23:10.650Z,53.50
2018-08-16T20:25:38.280Z,57.50
2018-08-16T20:28:05.949Z,53.60
2018-08-16T20:30:33.548Z,52.80
2018-08-16T20:37:57.272Z,50.30
2018-08-16T20:40:24.910Z,54.00
2018-08-16T20:42:52.693Z,48.30
2018-08-16T20:45:20.402Z,52.60
2018-08-16T20:47:47.996Z,56.00
2018-08-16T20:52:43.002Z,49.60
2018-08-16T20:57:38.059Z,60.20
2018-08-16T21:02:34.590Z,60.10
2018-08-16T21:05:02.216Z,59.00
2018-08-16T21:09:57.239Z,64.80
2018-08-16T21:12:24.713Z,58.40
2018-08-16T21:14:52.350Z,58.40
2018-08-16T21:19:47.377Z,59.20
2018-08-16T21:24:42.464Z,50.80
2018-08-16T21:27:10.014Z,50.80
2018-08-16T21:32:04.968Z,53.80
2018-08-16T21:34:32.525Z,47.60
2018-08-16T21:37:00.093Z,49.20
2018-08-16T21:41:55.051Z,47.50
2018-08-16T21:44:22.616Z,53.80
2018-08-16T21:46:50.098Z,47.80
2018-08-16T21:49:17.540Z,47.80
2018-08-16T22:01:35.236Z,49.20
2018-08-16T22:06:42.278Z,49.60
2018-08-16T22:09:11.516Z,50.40
2018-08-16T22:14:07.237Z,50.60
2018-08-16T22:16:34.799Z,50.90
2018-08-16T22:19:02.384Z,52.90
2018-08-16T22:21:30.516Z,52.70
2018-08-16T22:23:57.992Z,53.40
2018-08-16T22:26:25.536Z,54.20
2018-08-16T22:28:53.086Z,51.80
2018-08-16T22:33:49.753Z,51.40
2018-08-16T22:36:18.166Z,51.00
2018-08-16T22:38:45.722Z,50.90
2018-08-16T22:41:14.039Z,53.50
2018-08-16T22:48:36.700Z,51.80
2018-08-16T22:51:04.234Z,55.40
2018-08-16T22:55:59.207Z,53.80
2018-08-16T22:58:26.685Z,52.70
2018-08-16T23:03:23.255Z,51.80
2018-08-16T23:08:19.348Z,54.20
2018-08-16T23:10:46.910Z,52.30
2018-08-16T23:13:15.135Z,52.80
2018-08-16T23:15:43.163Z,53.10
2018-08-16T23:20:38.695Z,56.00
2018-08-16T23:23:06.538Z,53.40
2018-08-16T23:25:34.054Z,56.80
2018-08-16T23:28:01.545Z,54.80
2018-08-16T23:35:23.936Z,56.90
2018-08-16T23:37:51.416Z,55.20
2018-08-16T23:40:18.897Z,54.30
2018-08-16T23:42:46.364Z,57.80
2018-08-16T23:45:14.022Z,54.90
2018-08-16T23:47:46.822Z,55.90
2018-08-16T23:50:14.587Z,55.40
2018-08-16T23:55:10.576Z,57.60
2018-08-16T23:57:38.076Z,58.20
